KSFO/SFO METAR and TAF weather

Enter ICAO airport designator
Station Type Date Time Source
KSFO METAR 2020/07/12 18:56 UTC NOAA

KSFO 121856Z 32010KT 10SM CLR 23/11 A2992 RMK AO2 SLP131 T02280111


Station Type Date Time Source
KSFO Decoded METAR 2020/07/12 18:56 UTC NOAA

SAN FRANCISCO INTERNATIONAL AIRPORT , CA, United States (KSFO) 37-37N 122-22W 26M
Jul 12, 2020 - 02:56 PM EDT / 2020.07.12 1856 UTC
Wind: from the NW (320 degrees) at 12 MPH (10 KT):0
Visibility: 10 mile(s):0
Sky conditions: clear
Temperature: 73.0 F (22.8 C)
Dew Point: 52.0 F (11.1 C)
Relative Humidity: 47%
Pressure (altimeter): 29.92 in. Hg (1013 hPa)
ob: KSFO 121856Z 32010KT 10SM CLR 23/11 A2992 RMK AO2 SLP131 T02280111
cycle: 19

Station Type Date Time Source
KSFO TAF 2020/07/12 18:28 UTC NOAA

TAF KSFO 121726Z 1218/1324 31010KT P6SM SKC
FM121900 30016G24KT P6SM SKC
FM122100 29021G28KT P6SM SKC
FM130300 28016KT P6SM FEW009
FM130900 26008KT P6SM OVC008
FM131730 28010KT P6SM FEW010
FM132000 29014G21KT P6SM SKC
FM132300 28016G24KT P6SM SKC

Example: see airport list